Time;durP1;ratioP1;P1;durP2;ratioP2;P2;SDS_P1;SDS_P2;PMS_P1;PMS_P2;Temp;Humidity;BMP_temperature;BMP_pressure;BME280_temperature;BME280_humidity;BME280_pressure;Samples;Min_cycle;Max_cycle;Signal;HPM_P1;HPM_P2
2023/06/02 00:02:15;;;;;;;8.00;3.03;;;;;;;10.67;100.00;102190.75;5019803;28;20292;-70
2023/06/02 00:04:41;;;;;;;13.80;2.60;;;;;;;11.06;100.00;102259.91;5019238;28;20549;-71
2023/06/02 00:07:07;;;;;;;12.63;3.27;;;;;;;10.42;100.00;102148.81;5017413;28;20210;-70
2023/06/02 00:09:38;;;;;;;9.33;2.63;;;;;;;11.05;100.00;102277.00;5020357;28;20250;-70
2023/06/02 00:12:03;;;;;;;10.17;2.90;;;;;;;10.50;100.00;102197.94;5019623;28;20462;-70
2023/06/02 00:14:30;;;;;;;7.40;2.50;;;;;;;10.78;100.00;102254.84;5020784;28;20987;-70
2023/06/02 00:17:00;;;;;;;12.50;2.83;;;;;;;10.83;100.00;102268.59;5020462;28;20694;-71
2023/06/02 00:19:30;;;;;;;10.00;2.70;;;;;;;10.79;100.00;102239.56;5003034;28;20431;-71
2023/06/02 00:22:05;;;;;;;9.60;2.60;;;;;;;10.83;100.00;102243.59;5017485;28;20466;-71
2023/06/02 00:24:31;;;;;;;6.77;2.53;;;;;;;10.99;100.00;102270.47;5017104;28;20443;-70
2023/06/02 00:26:57;;;;;;;7.93;2.43;;;;;;;10.58;100.00;102224.78;5016531;28;20436;-70
2023/06/02 00:29:23;;;;;;;11.40;2.77;;;;;;;10.85;100.00;102276.50;5020407;28;21285;-71
2023/06/02 00:31:48;;;;;;;7.57;2.83;;;;;;;10.80;100.00;102265.41;5020254;28;20219;-70
2023/06/02 00:34:14;;;;;;;8.50;2.83;;;;;;;10.49;100.00;102188.22;5008166;28;26076;-70
2023/06/02 00:36:39;;;;;;;8.53;2.47;;;;;;;10.56;100.00;102191.09;5019786;28;20196;-70
2023/06/02 00:39:05;;;;;;;10.10;2.93;;;;;;;10.24;100.00;102149.75;5022193;28;20507;-71
2023/06/02 00:41:31;;;;;;;10.07;2.77;;;;;;;11.00;100.00;102279.38;5019378;28;20219;-71
2023/06/02 00:43:57;;;;;;;7.63;2.90;;;;;;;10.73;100.00;102230.34;5020425;28;20275;-71
2023/06/02 00:46:22;;;;;;;14.00;3.90;;;;;;;11.16;100.00;102273.16;5003090;28;20443;-70
2023/06/02 00:48:51;;;;;;;11.23;2.63;;;;;;;11.21;100.00;102289.59;5022219;28;20223;-71
2023/06/02 00:51:18;;;;;;;12.73;2.43;;;;;;;10.45;100.00;102188.72;5019443;28;20254;-70
2023/06/02 00:53:44;;;;;;;11.50;3.03;;;;;;;10.66;100.00;102239.22;5004408;28;20447;-71
2023/06/02 00:56:14;;;;;;;8.13;2.87;;;;;;;11.29;100.00;102289.63;5019520;28;20475;-71
2023/06/02 00:58:41;;;;;;;7.90;2.97;;;;;;;11.03;100.00;102238.75;5018550;28;20516;-70
2023/06/02 01:01:08;;;;;;;17.90;3.97;;;;;;;11.19;100.00;102299.66;5015900;28;20499;-71
2023/06/02 01:03:35;;;;;;;8.63;2.53;;;;;;;11.22;100.00;102304.72;5021765;28;20468;-70
2023/06/02 01:06:02;;;;;;;13.30;2.97;;;;;;;11.31;100.00;102306.38;5020811;28;20760;-71
2023/06/02 01:08:30;;;;;;;10.10;2.80;;;;;;;10.96;100.00;102256.53;5021418;28;20436;-71
2023/06/02 01:10:55;;;;;;;10.10;2.53;;;;;;;11.09;100.00;102243.44;5020867;28;20463;-71
2023/06/02 01:13:22;;;;;;;11.77;3.03;;;;;;;10.84;100.00;102210.38;5019632;28;20446;-71
2023/06/02 01:15:47;;;;;;;11.27;2.77;;;;;;;9.79;100.00;102083.97;5017921;28;21914;-71
2023/06/02 01:18:14;;;;;;;8.73;3.00;;;;;;;11.26;100.00;102317.66;5022627;28;20498;-71
2023/06/02 01:20:47;;;;;;;14.93;2.53;;;;;;;11.23;100.00;102327.91;5019659;28;20593;-71
2023/06/02 01:23:21;;;;;;;8.90;3.13;;;;;;;11.23;100.00;102327.91;5019902;28;20522;-71
2023/06/02 01:25:47;;;;;;;10.20;2.90;;;;;;;10.98;100.00;102262.56;5018413;28;20458;-71
2023/06/02 01:28:13;;;;;;;9.60;2.47;;;;;;;11.40;100.00;102315.28;5001853;28;21239;-71
2023/06/02 01:30:39;;;;;;;13.83;2.97;;;;;;;11.33;100.00;102315.13;5021127;28;20188;-70
2023/06/02 01:33:19;;;;;;;9.30;2.77;;;;;;;11.24;100.00;102303.53;5021720;28;20431;-71
2023/06/02 01:35:47;;;;;;;9.67;2.70;;;;;;;11.33;100.00;102309.75;5020190;28;20975;-71
2023/06/02 01:38:14;;;;;;;11.83;2.97;;;;;;;11.29;100.00;102316.47;5018588;28;20455;-71
2023/06/02 01:40:42;;;;;;;15.93;3.67;;;;;;;10.91;100.00;102234.72;5017817;28;20439;-71
2023/06/02 01:43:08;;;;;;;13.50;3.10;;;;;;;11.29;100.00;102308.41;5020019;28;20452;-70
2023/06/02 01:45:36;;;;;;;13.60;3.03;;;;;;;11.37;100.00;102300.38;5020498;28;20431;-70
2023/06/02 01:48:06;;;;;;;11.13;2.80;;;;;;;11.49;100.00;102322.34;5020547;28;20419;-71
2023/06/02 01:50:34;;;;;;;8.57;3.20;;;;;;;11.45;100.00;102316.47;5004012;28;20677;-70
2023/06/02 01:52:59;;;;;;;13.03;3.47;;;;;;;11.25;100.00;102296.31;5006956;28;20948;-71
2023/06/02 01:55:25;;;;;;;10.07;3.00;;;;;;;11.57;100.00;102322.38;5019184;28;20428;-70
2023/06/02 01:57:51;;;;;;;11.47;2.70;;;;;;;10.94;100.00;102248.66;5006144;28;20266;-71
2023/06/02 02:00:18;;;;;;;11.40;3.27;;;;;;;11.53;100.00;102321.84;5023977;28;20187;-71
2023/06/02 02:02:44;;;;;;;11.90;3.17;;;;;;;11.54;100.00;102317.28;5022515;28;20208;-71
2023/06/02 02:05:10;;;;;;;10.43;2.80;;;;;;;11.63;100.00;102323.50;5016562;28;20444;-70
2023/06/02 02:07:36;;;;;;;16.30;3.23;;;;;;;11.46;100.00;102318.16;5019783;28;20598;-71
2023/06/02 02:10:02;;;;;;;10.13;3.00;;;;;;;10.99;100.00;102222.16;5018110;28;20495;-71
2023/06/02 02:12:28;;;;;;;8.80;2.70;;;;;;;11.29;100.00;102286.94;5017644;28;20467;-70
2023/06/02 02:14:56;;;;;;;11.73;2.80;;;;;;;11.49;100.00;102319.66;5001790;28;20549;-71
2023/06/02 02:17:24;;;;;;;12.23;3.10;;;;;;;11.57;100.00;102334.94;5016437;28;20659;-71
2023/06/02 02:19:50;;;;;;;9.97;2.87;;;;;;;11.20;100.00;102253.88;5016515;28;21028;-71
2023/06/02 02:22:16;;;;;;;13.03;3.60;;;;;;;11.45;100.00;102321.00;5016677;28;20467;-70
2023/06/02 02:24:41;;;;;;;14.27;3.10;;;;;;;11.29;100.00;102284.25;5016909;28;21054;-71
2023/06/02 02:27:08;;;;;;;9.60;2.83;;;;;;;10.96;100.00;102219.78;5015333;28;20922;-71
2023/06/02 02:29:36;;;;;;;8.20;2.90;;;;;;;11.09;100.00;102251.50;5002462;28;20184;-71
2023/06/02 02:32:01;;;;;;;12.60;2.90;;;;;;;11.51;100.00;102344.50;5015511;28;20504;-71
2023/06/02 02:34:28;;;;;;;8.90;3.20;;;;;;;11.53;100.00;102334.44;5014390;28;20454;-71
2023/06/02 02:36:58;;;;;;;12.20;2.90;;;;;;;11.48;100.00;102332.25;5014190;28;20197;-71
2023/06/02 02:39:24;;;;;;;13.53;3.07;;;;;;;11.28;100.00;102277.16;5013022;28;20446;-71
2023/06/02 02:41:49;;;;;;;15.80;3.57;;;;;;;11.24;100.00;102295.47;5016555;28;20485;-71
2023/06/02 02:44:15;;;;;;;15.00;3.33;;;;;;;11.41;100.00;102303.56;5002081;28;20860;-71
2023/06/02 02:46:40;;;;;;;11.03;3.33;;;;;;;11.42;100.00;102294.47;5004199;28;20200;-70
2023/06/02 02:49:06;;;;;;;14.47;2.90;;;;;;;11.45;100.00;102324.53;5015583;28;20214;-71
2023/06/02 02:51:32;;;;;;;11.53;3.13;;;;;;;11.38;100.00;102293.13;5017018;28;20236;-71
2023/06/02 02:53:57;;;;;;;12.33;3.10;;;;;;;11.53;100.00;102305.72;4997372;28;20910;-71
2023/06/02 02:56:23;;;;;;;12.67;3.77;;;;;;;11.28;100.00;102278.03;5016398;28;20188;-71
2023/06/02 02:58:48;;;;;;;14.20;3.60;;;;;;;11.45;100.00;102304.88;5019084;28;20216;-71
2023/06/02 03:01:16;;;;;;;12.70;3.50;;;;;;;11.47;100.00;102361.97;4998300;28;20270;-71
2023/06/02 03:03:42;;;;;;;13.13;3.90;;;;;;;11.71;100.00;102370.03;5016423;28;20184;-71
2023/06/02 03:06:08;;;;;;;10.40;3.00;;;;;;;11.29;100.00;102297.69;5014207;28;20450;-71
2023/06/02 03:08:34;;;;;;;12.40;3.10;;;;;;;11.50;100.00;102322.16;4995249;28;20435;-70
2023/06/02 03:10:59;;;;;;;12.10;3.30;;;;;;;11.87;100.00;102369.22;5014527;28;20223;-70
2023/06/02 03:13:25;;;;;;;14.33;3.70;;;;;;;11.83;100.00;102350.88;5017201;28;20979;-71
2023/06/02 03:15:51;;;;;;;18.00;4.43;;;;;;;11.83;100.00;102362.50;5016848;28;20454;-71
2023/06/02 03:18:16;;;;;;;11.73;3.40;;;;;;;11.57;100.00;102357.28;5015473;28;20204;-71
2023/06/02 03:20:42;;;;;;;18.93;3.57;;;;;;;11.50;100.00;102324.03;5017167;28;21044;-71
2023/06/02 03:23:09;;;;;;;15.03;3.77;;;;;;;11.17;100.00;102283.75;4999256;28;20193;-71
2023/06/02 03:25:35;;;;;;;9.80;3.27;;;;;;;11.73;100.00;102367.19;5012819;28;20187;-71
2023/06/02 03:28:00;;;;;;;16.07;3.70;;;;;;;11.91;100.00;102362.47;5000381;28;20440;-71
2023/06/02 03:30:26;;;;;;;13.63;3.60;;;;;;;11.66;100.00;102302.53;5014191;28;20197;-71
2023/06/02 03:32:52;;;;;;;14.27;4.00;;;;;;;11.41;100.00;102290.13;5016001;28;20986;-70
2023/06/02 03:35:17;;;;;;;15.30;3.73;;;;;;;11.93;100.00;102367.69;5015842;28;20185;-71
2023/06/02 03:37:43;;;;;;;11.33;3.50;;;;;;;11.93;100.00;102363.16;5016725;28;20287;-73
2023/06/02 03:40:09;;;;;;;14.90;3.50;;;;;;;11.88;100.00;102384.34;5016329;28;20196;-71
2023/06/02 03:42:35;;;;;;;15.33;3.30;;;;;;;11.79;100.00;102382.63;5018848;28;20694;-70
2023/06/02 03:45:02;;;;;;;15.87;3.90;;;;;;;11.01;100.00;102255.03;5017347;28;20444;-71
2023/06/02 03:47:28;;;;;;;13.10;3.43;;;;;;;11.87;100.00;102376.44;5017455;28;20457;-71
2023/06/02 03:49:53;;;;;;;15.83;3.33;;;;;;;11.38;100.00;102299.34;5019666;28;20435;-71
2023/06/02 03:52:18;;;;;;;12.57;3.20;;;;;;;11.52;100.00;102322.84;5016367;28;20587;-70
2023/06/02 03:54:44;;;;;;;16.93;4.20;;;;;;;11.87;100.00;102389.91;5018230;28;20201;-71
2023/06/02 03:57:09;;;;;;;11.53;2.83;;;;;;;11.76;100.00;102391.03;5018572;28;20197;-71
2023/06/02 03:59:35;;;;;;;12.13;3.93;;;;;;;11.95;100.00;102420.31;5019130;28;20180;-71
2023/06/02 04:02:00;;;;;;;14.13;4.30;;;;;;;11.62;100.00;102357.59;5020786;28;20201;-70
2023/06/02 04:04:26;;;;;;;14.70;4.57;;;;;;;11.98;100.00;102421.81;5022677;28;20925;-71
2023/06/02 04:06:53;;;;;;;11.77;3.20;;;;;;;11.85;100.00;102406.19;5021730;28;20185;-70
2023/06/02 04:09:18;;;;;;;13.83;3.63;;;;;;;12.10;100.00;102446.53;5022926;28;20219;-71
2023/06/02 04:11:44;;;;;;;13.30;4.50;;;;;;;12.00;100.00;102435.91;5022525;28;20450;-71
2023/06/02 04:14:10;;;;;;;12.20;4.17;;;;;;;11.14;100.00;102302.00;5019984;28;20192;-71
2023/06/02 04:16:35;;;;;;;12.80;3.30;;;;;;;11.92;100.00;102458.28;5021549;28;20189;-71
2023/06/02 04:19:01;;;;;;;15.13;3.97;;;;;;;11.89;100.00;102455.06;5007117;28;21597;-71
2023/06/02 04:21:26;;;;;;;13.93;3.73;;;;;;;11.99;100.00;102437.78;5019518;28;20204;-71
2023/06/02 04:23:52;;;;;;;13.40;3.93;;;;;;;12.10;100.00;102459.97;5018846;28;20470;-71
2023/06/02 04:26:17;;;;;;;18.67;3.90;;;;;;;11.50;100.00;102350.91;5005483;28;20275;-71
2023/06/02 04:28:43;;;;;;;16.37;3.87;;;;;;;11.80;100.00;102389.69;5018316;28;20176;-71
2023/06/02 04:31:11;;;;;;;12.57;3.50;;;;;;;12.15;100.00;102445.00;5017846;28;20212;-71
2023/06/02 04:33:37;;;;;;;20.23;4.67;;;;;;;12.00;100.00;102433.22;5003879;28;20659;-71
2023/06/02 04:36:03;;;;;;;16.67;3.87;;;;;;;12.23;100.00;102487.16;5011743;28;20981;-71
2023/06/02 04:38:29;;;;;;;12.97;3.77;;;;;;;12.31;100.00;102499.78;5022410;28;21154;-71
2023/06/02 04:40:56;;;;;;;15.50;5.80;;;;;;;12.32;100.00;102510.38;5022780;28;20447;-70
2023/06/02 04:43:22;;;;;;;16.80;4.17;;;;;;;12.35;100.00;102493.03;5021533;28;20290;-71
2023/06/02 04:45:47;;;;;;;14.83;4.47;;;;;;;11.91;100.00;102431.56;5023017;28;20526;-71
2023/06/02 04:48:13;;;;;;;14.93;4.00;;;;;;;12.32;100.00;102502.28;5021087;28;20430;-71
2023/06/02 04:50:40;;;;;;;13.67;3.70;;;;;;;11.91;100.00;102448.53;5013750;28;20266;-70
2023/06/02 04:53:05;;;;;;;17.63;3.93;;;;;;;12.10;100.00;102476.09;4999776;28;20203;-71
2023/06/02 04:55:31;;;;;;;18.07;4.17;;;;;;;12.41;100.00;102525.53;5003650;28;21419;-71
2023/06/02 04:57:57;;;;;;;16.30;4.50;;;;;;;12.08;100.00;102456.59;5019406;28;20255;-71
2023/06/02 05:00:22;;;;;;;17.07;4.13;;;;;;;12.54;100.00;102524.16;5015134;28;20188;-71
2023/06/02 05:02:48;;;;;;;20.63;4.23;;;;;;;12.53;100.00;102514.41;5020175;28;20303;-71
2023/06/02 05:05:13;;;;;;;20.63;4.30;;;;;;;12.50;100.00;102526.34;5003466;28;20188;-71
2023/06/02 05:07:38;;;;;;;12.33;3.53;;;;;;;12.48;100.00;102533.75;5000320;28;20188;-71
2023/06/02 05:10:04;;;;;;;14.90;4.00;;;;;;;12.28;100.00;102508.19;5020803;28;20239;-71
2023/06/02 05:12:30;;;;;;;12.13;3.60;;;;;;;12.66;100.00;102541.63;5019041;28;20204;-70
2023/06/02 05:14:56;;;;;;;19.07;4.47;;;;;;;12.70;100.00;102526.81;5019894;28;20435;-71
2023/06/02 05:17:24;;;;;;;16.37;3.90;;;;;;;12.64;100.00;102517.56;5018082;28;20471;-71
2023/06/02 05:19:50;;;;;;;24.13;5.70;;;;;;;12.69;100.00;102530.50;5019656;28;20192;-71
2023/06/02 05:22:16;;;;;;;11.53;4.17;;;;;;;12.78;100.00;102542.09;5019584;28;21082;-71
2023/06/02 05:24:41;;;;;;;12.73;3.90;;;;;;;12.11;100.00;102448.19;5018056;28;20435;-71
2023/06/02 05:27:07;;;;;;;14.13;5.20;;;;;;;12.26;100.00;102486.00;5019247;28;20461;-71
2023/06/02 05:29:33;;;;;;;15.53;3.63;;;;;;;12.70;100.00;102563.66;5019657;28;20185;-71
2023/06/02 05:31:58;;;;;;;14.93;4.00;;;;;;;12.71;100.00;102549.19;5017174;28;20204;-71
2023/06/02 05:34:23;;;;;;;14.70;4.53;;;;;;;12.69;100.00;102541.28;5018319;28;20331;-71
2023/06/02 05:36:49;;;;;;;14.03;3.10;;;;;;;12.28;100.00;102495.59;5019351;28;20658;-70
2023/06/02 05:39:15;;;;;;;17.57;4.30;;;;;;;12.68;100.00;102560.31;5018451;28;20188;-71
2023/06/02 05:41:40;;;;;;;14.20;3.37;;;;;;;12.28;100.00;102471.38;5017045;28;20561;-71
2023/06/02 05:44:06;;;;;;;12.60;4.33;;;;;;;12.87;100.00;102559.91;5021183;28;20188;-70
2023/06/02 05:46:31;;;;;;;12.87;3.50;;;;;;;12.40;100.00;102494.22;5022438;28;20184;-71
2023/06/02 05:48:56;;;;;;;13.00;4.00;;;;;;;12.85;100.00;102583.50;5019677;28;20185;-70
2023/06/02 05:51:22;;;;;;;14.93;3.93;;;;;;;12.88;100.00;102585.84;5019578;28;20200;-71
2023/06/02 05:53:50;;;;;;;16.70;4.60;;;;;;;12.52;100.00;102502.78;5021731;28;20180;-71
2023/06/02 05:56:16;;;;;;;20.43;4.23;;;;;;;12.43;100.00;102483.09;5021649;28;20259;-71
2023/06/02 05:58:41;;;;;;;12.03;3.70;;;;;;;12.92;100.00;102557.56;5019054;28;20505;-71
2023/06/02 06:01:09;;;;;;;15.53;3.53;;;;;;;12.61;100.00;102498.22;5001433;28;20498;-71
2023/06/02 06:03:35;;;;;;;16.60;3.27;;;;;;;12.18;100.00;102441.13;5019250;28;20172;-71
2023/06/02 06:06:01;;;;;;;19.00;3.93;;;;;;;12.68;100.00;102515.38;5020625;28;20500;-71
2023/06/02 06:08:26;;;;;;;10.77;3.87;;;;;;;12.41;100.00;102487.84;5020482;28;20420;-71
2023/06/02 06:10:52;;;;;;;14.07;3.57;;;;;;;12.48;100.00;102481.78;5019040;28;20478;-71
2023/06/02 06:13:17;;;;;;;14.60;4.73;;;;;;;13.00;100.00;102564.78;5019619;28;20185;-71
2023/06/02 06:15:43;;;;;;;10.37;3.17;;;;;;;12.26;100.00;102448.34;5002444;28;20184;-71
2023/06/02 06:18:08;;;;;;;15.13;4.00;;;;;;;12.85;100.00;102513.50;5013561;28;20232;-71
2023/06/02 06:20:34;;;;;;;10.40;3.17;;;;;;;13.21;100.00;102537.25;5021017;28;20181;-71
2023/06/02 06:22:59;;;;;;;6.23;2.77;;;;;;;13.42;100.00;102571.72;5020118;28;20200;-71
2023/06/02 06:25:25;;;;;;;20.17;4.03;;;;;;;13.26;100.00;102497.19;5021153;28;20180;-71
2023/06/02 06:27:50;;;;;;;12.10;3.23;;;;;;;13.49;100.00;102526.88;5021184;28;20804;-71
2023/06/02 06:30:15;;;;;;;8.63;2.53;;;;;;;13.42;100.00;102517.81;5020914;28;20187;-71
2023/06/02 06:32:41;;;;;;;8.27;2.87;;;;;;;13.53;100.00;102510.16;5018015;28;20208;-71
2023/06/02 06:35:07;;;;;;;9.67;2.80;;;;;;;13.11;100.00;102438.63;4996658;28;20894;-71
2023/06/02 06:37:32;;;;;;;9.03;3.00;;;;;;;13.68;100.00;102521.06;5014284;28;20247;-71
2023/06/02 06:39:58;;;;;;;14.60;2.63;;;;;;;13.54;100.00;102471.41;5001393;28;20193;-72
2023/06/02 06:42:23;;;;;;;7.33;2.40;;;;;;;13.31;100.00;102403.19;5019043;28;20246;-70
2023/06/02 06:44:50;;;;;;;7.70;2.63;;;;;;;13.75;100.00;102468.06;5019837;28;20183;-71
2023/06/02 06:47:16;;;;;;;7.83;2.30;;;;;;;13.82;100.00;102470.03;5002153;28;20543;-71
2023/06/02 06:49:41;;;;;;;6.17;1.97;;;;;;;13.59;100.00;102395.38;5018154;28;20492;-71
2023/06/02 06:52:07;;;;;;;4.80;1.90;;;;;;;13.49;100.00;102374.06;5018727;28;20587;-71
2023/06/02 06:54:32;;;;;;;7.80;1.73;;;;;;;13.41;100.00;102349.03;5019041;28;20562;-71
2023/06/02 06:56:58;;;;;;;9.20;1.90;;;;;;;13.79;100.00;102420.00;5020531;28;20258;-71
2023/06/02 06:59:23;;;;;;;13.30;2.60;;;;;;;13.97;100.00;102427.75;5016505;28;20183;-71
2023/06/02 07:01:48;;;;;;;4.47;2.20;;;;;;;13.76;100.00;102393.38;5018545;28;20205;-73
2023/06/02 07:04:14;;;;;;;6.10;2.23;;;;;;;14.07;100.00;102427.50;5019615;28;20192;-72
2023/06/02 07:06:39;;;;;;;8.17;1.80;;;;;;;13.65;100.00;102347.97;5003867;28;20219;-72
2023/06/02 07:09:05;;;;;;;4.93;1.77;;;;;;;14.00;100.00;102411.19;5018017;28;20276;-72
2023/06/02 07:11:30;;;;;;;7.17;1.60;;;;;;;14.07;100.00;102400.53;5021560;28;20204;-72
2023/06/02 07:13:56;;;;;;;3.10;1.30;;;;;;;14.07;100.00;102373.56;5020066;28;20227;-73
2023/06/02 07:16:21;;;;;;;5.17;1.77;;;;;;;14.16;100.00;102389.47;5019097;28;20658;-71
2023/06/02 07:18:48;;;;;;;2.60;1.43;;;;;;;14.18;100.00;102375.81;5017389;28;20188;-72
2023/06/02 07:21:13;;;;;;;2.80;1.33;;;;;;;14.25;100.00;102365.91;5019112;28;20204;-72
2023/06/02 07:23:39;;;;;;;2.60;1.37;;;;;;;14.22;100.00;102361.72;5016797;28;20431;-71
2023/06/02 07:26:04;;;;;;;2.67;1.10;;;;;;;14.21;100.00;102348.44;5018475;28;20195;-72
2023/06/02 07:28:30;;;;;;;3.27;1.30;;;;;;;14.17;100.00;102339.84;5017974;28;20177;-72
2023/06/02 07:30:55;;;;;;;4.40;1.20;;;;;;;14.21;100.00;102351.97;5018160;28;20275;-71
2023/06/02 07:33:21;;;;;;;3.93;1.60;;;;;;;14.25;100.00;102349.72;5020507;28;20225;-72
2023/06/02 07:35:46;;;;;;;4.40;1.40;;;;;;;14.18;100.00;102325.34;5020111;28;20568;-72
2023/06/02 07:38:12;;;;;;;2.10;1.10;;;;;;;14.39;100.00;102340.78;5012178;28;20220;-72
2023/06/02 07:40:37;;;;;;;5.33;1.53;;;;;;;14.42;100.00;102336.88;5006795;28;20230;-72
2023/06/02 07:43:03;;;;;;;2.47;1.10;;;;;;;14.39;100.00;102332.69;5002860;28;20188;-72
2023/06/02 07:45:29;;;;;;;2.17;1.10;;;;;;;14.34;100.00;102302.72;5022955;28;20198;-72
2023/06/02 07:47:54;;;;;;;1.70;1.00;;;;;;;14.53;100.00;102319.41;5020364;28;20407;-72
2023/06/02 07:50:20;;;;;;;2.10;0.87;;;;;;;14.56;100.00;102297.41;5022062;28;20183;-72
2023/06/02 07:52:46;;;;;;;3.70;1.30;;;;;;;14.05;100.00;102195.66;5023971;28;20246;-72
2023/06/02 07:55:12;;;;;;;4.70;0.90;;;;;;;14.59;100.00;102268.16;5023687;28;20706;-72
2023/06/02 07:57:38;;;;;;;1.50;0.90;;;;;;;14.67;100.00;102273.47;5010577;28;20467;-72
2023/06/02 08:00:15;;;;;;;2.70;1.00;;;;;;;14.12;100.00;102169.59;5010317;28;20434;-72
2023/06/02 08:02:43;;;;;;;3.60;1.40;;;;;;;14.56;100.00;102233.44;5022308;28;20274;-72
2023/06/02 08:05:09;;;;;;;3.60;1.00;;;;;;;14.65;100.00;102244.97;5020379;28;20487;-72
2023/06/02 08:07:35;;;;;;;2.80;1.00;;;;;;;14.46;100.00;102200.47;5023483;28;20888;-73
2023/06/02 08:10:00;;;;;;;1.30;0.97;;;;;;;14.78;100.00;102247.81;5024325;28;20431;-72
2023/06/02 08:12:26;;;;;;;4.60;1.00;;;;;;;14.82;100.00;102262.59;5021450;28;20203;-72
2023/06/02 08:14:51;;;;;;;1.97;1.00;;;;;;;14.63;100.00;102228.13;5020278;28;20191;-72
2023/06/02 08:17:17;;;;;;;2.47;0.90;;;;;;;14.42;100.00;102189.25;5023488;28;20201;-72
2023/06/02 08:19:42;;;;;;;2.40;0.83;;;;;;;14.95;100.00;102253.78;5023109;28;20181;-72
2023/06/02 08:22:09;;;;;;;2.20;1.10;;;;;;;15.00;100.00;102262.16;5023430;28;20208;-72
2023/06/02 08:24:36;;;;;;;1.60;1.07;;;;;;;14.95;100.00;102267.28;5022663;28;20199;-72
2023/06/02 08:27:03;;;;;;;2.90;0.90;;;;;;;14.96;100.00;102255.47;5006110;28;20451;-73
2023/06/02 08:29:30;;;;;;;2.20;1.00;;;;;;;15.30;100.00;102260.16;5022523;28;20418;-72
2023/06/02 08:31:55;;;;;;;1.93;1.17;;;;;;;15.22;100.00;102262.97;5020189;28;20431;-72
2023/06/02 08:34:21;;;;;;;3.87;1.37;;;;;;;14.91;100.00;102225.50;5020341;28;20442;-72
2023/06/02 08:36:56;;;;;;;3.57;1.03;;;;;;;15.16;100.00;102271.88;5023058;28;20180;-72
2023/06/02 08:39:21;;;;;;;3.60;1.23;;;;;;;14.97;100.00;102224.72;5019611;28;20654;-72
2023/06/02 08:41:50;;;;;;;2.00;1.00;;;;;;;15.36;100.00;102262.06;5006071;28;20460;-72
2023/06/02 08:44:16;;;;;;;4.37;1.10;;;;;;;14.67;100.00;102168.13;5022413;28;20271;-72
2023/06/02 08:46:45;;;;;;;2.83;1.07;;;;;;;15.18;100.00;102239.22;5019921;28;20423;-72
2023/06/02 08:49:15;;;;;;;2.90;1.10;;;;;;;15.56;100.00;102246.00;5005240;28;20435;-72
2023/06/02 08:51:43;;;;;;;1.40;0.90;;;;;;;15.29;100.00;102228.72;5015345;28;20458;-71
2023/06/02 08:54:13;;;;;;;2.10;0.90;;;;;;;15.57;100.00;102263.88;5019818;28;20538;-72
2023/06/02 08:56:41;;;;;;;3.53;1.37;;;;;;;15.66;100.00;102255.63;5017160;28;20435;-72
2023/06/02 08:59:08;;;;;;;3.63;0.90;;;;;;;15.32;100.00;102231.03;5021653;28;20449;-72
2023/06/02 09:01:34;;;;;;;3.30;1.23;;;;;;;15.60;100.00;102238.31;5018404;28;20471;-72
2023/06/02 09:03:59;;;;;;;1.57;0.93;;;;;;;15.64;100.00;102228.75;5002731;28;20439;-72
2023/06/02 09:06:26;;;;;;;3.40;1.30;;;;;;;15.85;100.00;102248.66;5019387;28;21113;-72
2023/06/02 09:09:01;;;;;;;2.37;1.20;;;;;;;15.77;100.00;102247.81;5018622;28;20181;-72
2023/06/02 09:11:29;;;;;;;3.33;1.20;;;;;;;15.52;100.00;102204.13;5016720;28;20463;-72
2023/06/02 09:13:55;;;;;;;3.10;0.97;;;;;;;15.85;100.00;102243.25;5019393;28;20447;-72
2023/06/02 09:16:22;;;;;;;3.17;1.17;;;;;;;15.64;100.00;102179.25;5019005;28;20455;-73
2023/06/02 09:18:56;;;;;;;2.37;1.00;;;;;;;16.10;100.00;102233.59;5019215;28;20520;-73
2023/06/02 09:21:27;;;;;;;3.43;1.23;;;;;;;16.08;100.00;102254.63;5018754;28;20451;-72
2023/06/02 09:23:54;;;;;;;1.97;1.00;;;;;;;16.03;100.00;102239.00;5019281;28;20438;-72
2023/06/02 09:26:23;;;;;;;2.27;1.30;;;;;;;16.00;100.00;102230.47;5019765;28;20447;-72
2023/06/02 09:29:09;;;;;;;2.57;1.20;;;;;;;16.29;100.00;102250.97;5011607;28;20427;-72
2023/06/02 09:31:45;;;;;;;2.50;0.97;;;;;;;16.12;100.00;102244.25;5017572;28;20481;-72
2023/06/02 09:34:14;;;;;;;2.10;1.43;;;;;;;16.04;100.00;102229.84;5017673;28;20983;-72
2023/06/02 09:36:40;;;;;;;2.30;1.20;;;;;;;16.11;100.00;102243.38;5018355;28;20525;-72
2023/06/02 09:39:06;;;;;;;2.73;1.10;;;;;;;16.23;100.00;102258.03;5020772;28;21016;-72
2023/06/02 09:41:32;;;;;;;1.57;1.00;;;;;;;15.63;100.00;102173.00;5016156;28;20738;-73
2023/06/02 09:43:58;;;;;;;4.00;1.10;;;;;;;15.35;100.00;102136.00;5018962;28;20432;-73
2023/06/02 09:46:23;;;;;;;1.93;1.03;;;;;;;15.78;100.00;102211.59;5004644;28;20678;-72
2023/06/02 09:49:00;;;;;;;3.27;1.43;;;;;;;16.35;100.00;102266.41;5019751;28;20184;-72
2023/06/02 09:51:26;;;;;;;2.57;1.20;;;;;;;15.71;100.00;102159.34;5019000;28;20206;-72
2023/06/02 09:53:52;;;;;;;2.00;1.03;;;;;;;16.45;100.00;102266.84;5018218;28;20565;-72
2023/06/02 09:56:26;;;;;;;4.30;1.70;;;;;;;16.28;100.00;102265.53;5018256;28;20524;-72
2023/06/02 09:58:54;;;;;;;3.93;1.50;;;;;;;16.35;100.00;102252.06;5017796;28;20231;-72
2023/06/02 10:01:20;;;;;;;3.43;1.33;;;;;;;16.40;100.00;102269.34;5022417;28;20477;-72
2023/06/02 10:03:45;;;;;;;6.33;2.20;;;;;;;16.46;100.00;102246.88;5020283;28;20485;-72
2023/06/02 10:06:40;;;;;;;3.10;1.60;;;;;;;16.65;100.00;102269.63;5020158;28;20271;-72
2023/06/02 10:09:32;;;;;;;5.00;1.93;;;;;;;16.72;100.00;102226.28;5017280;28;20207;-73
2023/06/02 10:11:57;;;;;;;3.33;1.80;;;;;;;16.93;100.00;102274.94;5018618;23;20500;-69
2023/06/02 10:14:26;;;;;;;3.37;1.90;;;;;;;16.87;100.00;102270.34;5000670;28;20804;-70
2023/06/02 10:17:14;;;;;;;5.47;1.70;;;;;;;16.58;100.00;102227.31;5002867;28;20275;-70
2023/06/02 10:19:54;;;;;;;6.20;1.70;;;;;;;16.89;100.00;102270.13;5001821;28;20444;-68
2023/06/02 10:22:37;;;;;;;3.60;1.80;;;;;;;16.99;100.00;102267.84;5013065;28;20450;-69
2023/06/02 10:25:44;;;;;;;4.90;2.37;;;;;;;16.80;100.00;102236.13;5018755;28;21204;-71
2023/06/02 10:28:11;;;;;;;4.50;1.50;;;;;;;16.92;100.00;102248.03;5019168;28;20448;-71
2023/06/02 10:30:37;;;;;;;3.33;1.47;;;;;;;16.80;100.00;102199.03;5022491;28;20956;-71
2023/06/02 10:33:03;;;;;;;3.07;1.50;;;;;;;16.66;100.00;102184.63;5020298;28;20494;-73
2023/06/02 10:36:07;;;;;;;8.13;1.73;;;;;;;16.99;100.00;102267.03;5020410;28;20177;-74
2023/06/02 10:38:34;;;;;;;8.73;1.80;;;;;;;16.53;100.00;102164.81;4937668;28;20325;-74
2023/06/02 10:41:00;;;;;;;5.63;2.20;;;;;;;17.17;100.00;102234.72;4942000;28;21102;-72
2023/06/02 10:43:29;;;;;;;3.50;1.40;;;;;;;16.88;100.00;102242.19;4964167;28;20857;-72
2023/06/02 10:46:18;;;;;;;4.03;1.50;;;;;;;16.80;100.00;102144.84;5019233;28;20447;-70
2023/06/02 10:48:43;;;;;;;5.77;1.53;;;;;;;17.10;100.00;102166.94;5012694;28;20926;-68
2023/06/02 10:51:10;;;;;;;5.53;1.43;;;;;;;17.54;100.00;102246.78;5015908;28;20463;-68
2023/06/02 10:54:07;;;;;;;4.67;2.00;;;;;;;17.66;100.00;102255.09;5017376;28;20195;-68
2023/06/02 10:56:35;;;;;;;3.67;1.60;;;;;;;17.57;100.00;102262.63;5015375;28;20434;-69
2023/06/02 10:59:00;;;;;;;3.03;1.43;;;;;;;17.29;100.00;102265.56;5029656;28;20501;-69
2023/06/02 11:01:48;;;;;;;5.43;1.50;;;;;;;17.48;100.00;102261.19;5022122;28;20477;-69
2023/06/02 11:04:33;;;;;;;3.47;1.23;;;;;;;17.14;100.00;102222.41;5021958;28;20180;-70
2023/06/02 11:07:33;;;;;;;2.13;1.50;;;;;;;17.29;100.00;102271.00;5019613;28;20469;-70
2023/06/02 11:10:00;;;;;;;7.30;1.80;;;;;;;17.36;100.00;102266.41;5021986;28;20513;-70
2023/06/02 11:12:51;;;;;;;2.90;1.70;;;;;;;17.16;100.00;102236.59;5024036;28;20557;-70
2023/06/02 11:15:18;;;;;;;3.43;1.83;;;;;;;16.96;100.00;102207.81;5018811;28;20434;-70
2023/06/02 11:17:47;;;;;;;6.03;2.30;;;;;;;17.60;100.00;102269.53;5021016;28;20474;-70